SPMIG EPWA-EPMO
Flight info
| Callsign | SPMIG |
|---|---|
| Flight time | 0h 37m |
| Altitude | 9000 |
| Route | VFR |
| Aircraft | MG15/M-L/S |
Departure
| Time | 2026-05-04 10:19 |
|---|---|
| Airport | Warsaw Chopin Airport (EPWA) |
Arrival
| Time | 2026-05-04 10:56 |
|---|---|
| Airport | Warsaw Modlin Airport (EPMO) |
| Time | Latitude | Longitude | Altitude | Speed | Heading |
|---|---|---|---|---|---|
| 2026-05-04 09:57 | 52.17321 | 20.95324 | 334 ft | 0 kts | 296° |
| 2026-05-04 10:06 | 52.17322 | 20.95322 | 334 ft | 2 kts | 296° |
| 2026-05-04 10:06 | 52.17345 | 20.95305 | 333 ft | 0 kts | 27° |
| 2026-05-04 10:08 | 52.17360 | 20.95326 | 332 ft | 6 kts | 69° |
| 2026-05-04 10:08 | 52.17334 | 20.95424 | 334 ft | 12 kts | 115° |
| 2026-05-04 10:08 | 52.17293 | 20.95561 | 334 ft | 13 kts | 116° |
| 2026-05-04 10:08 | 52.17253 | 20.95698 | 334 ft | 13 kts | 115° |
| 2026-05-04 10:09 | 52.17213 | 20.95797 | 333 ft | 9 kts | 174° |
| 2026-05-04 10:09 | 52.17155 | 20.95757 | 334 ft | 8 kts | 206° |
| 2026-05-04 10:09 | 52.17103 | 20.95715 | 332 ft | 8 kts | 205° |
| 2026-05-04 10:09 | 52.17039 | 20.95665 | 334 ft | 13 kts | 205° |
| 2026-05-04 10:10 | 52.16941 | 20.95588 | 333 ft | 18 kts | 206° |
| 2026-05-04 10:10 | 52.16828 | 20.95500 | 334 ft | 15 kts | 204° |
| 2026-05-04 10:10 | 52.16755 | 20.95395 | 334 ft | 14 kts | 266° |
| 2026-05-04 10:10 | 52.16789 | 20.95244 | 333 ft | 14 kts | 294° |
| 2026-05-04 10:11 | 52.16830 | 20.95098 | 332 ft | 14 kts | 294° |
| 2026-05-04 10:11 | 52.16871 | 20.94948 | 332 ft | 15 kts | 293° |
| 2026-05-04 10:11 | 52.16913 | 20.94794 | 333 ft | 15 kts | 296° |
| 2026-05-04 10:11 | 52.16957 | 20.94646 | 333 ft | 11 kts | 298° |
| 2026-05-04 10:12 | 52.17022 | 20.94593 | 334 ft | 12 kts | 18° |
| 2026-05-04 10:12 | 52.17102 | 20.94653 | 333 ft | 11 kts | 27° |
| 2026-05-04 10:12 | 52.17134 | 20.94719 | 333 ft | 7 kts | 114° |
| 2026-05-04 10:12 | 52.17134 | 20.94721 | 333 ft | 0 kts | 114° |
| 2026-05-04 10:13 | 52.17132 | 20.94727 | 333 ft | 3 kts | 112° |
| 2026-05-04 10:13 | 52.16964 | 20.95323 | 336 ft | 79 kts | 114° |
| 2026-05-04 10:13 | 52.16754 | 20.96072 | 333 ft | 65 kts | 114° |
| 2026-05-04 10:13 | 52.16585 | 20.96671 | 333 ft | 51 kts | 117° |
| 2026-05-04 10:14 | 52.16460 | 20.97121 | 333 ft | 37 kts | 113° |
| 2026-05-04 10:14 | 52.16374 | 20.97437 | 333 ft | 26 kts | 116° |
| 2026-05-04 10:16 | 52.16210 | 20.98454 | 334 ft | 5 kts | 204° |
| 2026-05-04 10:16 | 52.16208 | 20.98453 | 334 ft | 0 kts | 204° |
| 2026-05-04 10:16 | 52.16207 | 20.98452 | 334 ft | 2 kts | 204° |
| 2026-05-04 10:16 | 52.16169 | 20.98425 | 333 ft | 10 kts | 203° |
| 2026-05-04 10:17 | 52.16115 | 20.98356 | 331 ft | 10 kts | 276° |
| 2026-05-04 10:17 | 52.16121 | 20.98329 | 332 ft | 0 kts | 293° |
| 2026-05-04 10:19 | 52.16490 | 20.91350 | 1251 ft | 250 kts | 233° |
| 2026-05-04 10:19 | 52.15438 | 20.88960 | 1298 ft | 275 kts | 233° |
| 2026-05-04 10:19 | 52.14307 | 20.86371 | 1277 ft | 286 kts | 234° |
| 2026-05-04 10:19 | 52.13140 | 20.83687 | 1242 ft | 295 kts | 235° |
| 2026-05-04 10:20 | 52.12041 | 20.80898 | 1213 ft | 294 kts | 251° |
| 2026-05-04 10:20 | 52.12090 | 20.77526 | 1260 ft | 318 kts | 287° |
| 2026-05-04 10:20 | 52.12966 | 20.74141 | 1204 ft | 329 kts | 291° |
| 2026-05-04 10:20 | 52.13883 | 20.70717 | 1051 ft | 330 kts | 290° |
| 2026-05-04 10:21 | 52.14823 | 20.67314 | 892 ft | 332 kts | 293° |
| 2026-05-04 10:21 | 52.15765 | 20.63940 | 1232 ft | 319 kts | 292° |
| 2026-05-04 10:21 | 52.16724 | 20.60706 | 1644 ft | 330 kts | 293° |
| 2026-05-04 10:21 | 52.17742 | 20.57287 | 1654 ft | 340 kts | 292° |
| 2026-05-04 10:22 | 52.19973 | 20.50017 | 3127 ft | 364 kts | 294° |
| 2026-05-04 10:22 | 52.21138 | 20.46356 | 3315 ft | 366 kts | 296° |
| 2026-05-04 10:22 | 52.22344 | 20.42667 | 3267 ft | 371 kts | 296° |
| 2026-05-04 10:23 | 52.23610 | 20.38981 | 3245 ft | 375 kts | 297° |
| 2026-05-04 10:23 | 52.24871 | 20.35247 | 3239 ft | 379 kts | 297° |
| 2026-05-04 10:25 | 52.33581 | 20.08357 | 6436 ft | 402 kts | 296° |
| 2026-05-04 10:25 | 52.34887 | 20.04335 | 6281 ft | 403 kts | 296° |
| 2026-05-04 10:25 | 52.36241 | 20.00319 | 6186 ft | 400 kts | 297° |
| 2026-05-04 10:25 | 52.37601 | 19.96379 | 6185 ft | 394 kts | 297° |
| 2026-05-04 10:26 | 52.38677 | 19.92298 | 5985 ft | 389 kts | 286° |
| 2026-05-04 10:26 | 52.39501 | 19.88094 | 5791 ft | 389 kts | 287° |
| 2026-05-04 10:26 | 52.40337 | 19.83900 | 5792 ft | 386 kts | 286° |
| 2026-05-04 10:26 | 52.41184 | 19.79764 | 5654 ft | 388 kts | 287° |
| 2026-05-04 10:27 | 52.42046 | 19.75603 | 5563 ft | 379 kts | 287° |
| 2026-05-04 10:27 | 52.42927 | 19.71659 | 5491 ft | 358 kts | 288° |
| 2026-05-04 10:27 | 52.43792 | 19.67926 | 5459 ft | 340 kts | 289° |
| 2026-05-04 10:27 | 52.44646 | 19.64358 | 5378 ft | 335 kts | 289° |
| 2026-05-04 10:28 | 52.45510 | 19.60828 | 5303 ft | 332 kts | 290° |
| 2026-05-04 10:28 | 52.46348 | 19.57328 | 5236 ft | 331 kts | 289° |
| 2026-05-04 10:28 | 52.47168 | 19.53735 | 5125 ft | 337 kts | 288° |
| 2026-05-04 10:28 | 52.48008 | 19.50177 | 5074 ft | 342 kts | 289° |
| 2026-05-04 10:29 | 52.48915 | 19.46506 | 4975 ft | 349 kts | 290° |
| 2026-05-04 10:29 | 52.49825 | 19.42849 | 5064 ft | 349 kts | 290° |
| 2026-05-04 10:29 | 52.51301 | 19.39923 | 7258 ft | 359 kts | 341° |
| 2026-05-04 10:29 | 52.53122 | 19.37235 | 8294 ft | 366 kts | 304° |
| 2026-05-04 10:30 | 52.54563 | 19.34187 | 8396 ft | 311 kts | 304° |
| 2026-05-04 10:30 | 52.55801 | 19.31554 | 8246 ft | 277 kts | 303° |
| 2026-05-04 10:30 | 52.56927 | 19.29192 | 8237 ft | 246 kts | 308° |
| 2026-05-04 10:30 | 52.58293 | 19.27803 | 8268 ft | 233 kts | 342° |
| 2026-05-04 10:31 | 52.59850 | 19.27480 | 8294 ft | 218 kts | 347° |
| 2026-05-04 10:31 | 52.61307 | 19.27227 | 8351 ft | 201 kts | 349° |
| 2026-05-04 10:32 | 52.66317 | 19.23754 | 8329 ft | 125 kts | 10° |
| 2026-05-04 10:33 | 52.66897 | 19.24782 | 8216 ft | 127 kts | 79° |
| 2026-05-04 10:33 | 52.66758 | 19.26168 | 8005 ft | 126 kts | 118° |
| 2026-05-04 10:33 | 52.66364 | 19.27742 | 8218 ft | 183 kts | 119° |
| 2026-05-04 10:33 | 52.65748 | 19.29926 | 8404 ft | 223 kts | 120° |
| 2026-05-04 10:34 | 52.64891 | 19.32001 | 8403 ft | 220 kts | 162° |
| 2026-05-04 10:34 | 52.63506 | 19.32945 | 8452 ft | 208 kts | 163° |
| 2026-05-04 10:34 | 52.62227 | 19.33821 | 8481 ft | 190 kts | 164° |
| 2026-05-04 10:34 | 52.61056 | 19.34583 | 8542 ft | 171 kts | 165° |
| 2026-05-04 10:35 | 52.60085 | 19.35409 | 8832 ft | 150 kts | 141° |
| 2026-05-04 10:35 | 52.59665 | 19.36915 | 8988 ft | 140 kts | 112° |
| 2026-05-04 10:35 | 52.59450 | 19.38338 | 8619 ft | 113 kts | 118° |
| 2026-05-04 10:35 | 52.60142 | 19.40339 | 6945 ft | 276 kts | 55° |
| 2026-05-04 10:36 | 52.61217 | 19.42774 | 7059 ft | 241 kts | 41° |
| 2026-05-04 10:36 | 52.62151 | 19.42327 | 7031 ft | 154 kts | 248° |
| 2026-05-04 10:36 | 52.61302 | 19.41389 | 6971 ft | 144 kts | 210° |
| 2026-05-04 10:36 | 52.60486 | 19.40790 | 6933 ft | 116 kts | 199° |
| 2026-05-04 10:37 | 52.59794 | 19.41387 | 6791 ft | 134 kts | 122° |
| 2026-05-04 10:37 | 52.59882 | 19.42857 | 6562 ft | 139 kts | 43° |
| 2026-05-04 10:37 | 52.60750 | 19.43399 | 6195 ft | 134 kts | 6° |
| 2026-05-04 10:37 | 52.61617 | 19.43717 | 6033 ft | 159 kts | 6° |
| 2026-05-04 10:39 | 52.60244 | 19.47765 | 5981 ft | 259 kts | 138° |
| 2026-05-04 10:39 | 52.58890 | 19.50024 | 5934 ft | 292 kts | 138° |
| 2026-05-04 10:39 | 52.57407 | 19.52337 | 5862 ft | 301 kts | 140° |
| 2026-05-04 10:40 | 52.55876 | 19.54697 | 5877 ft | 303 kts | 140° |
| 2026-05-04 10:40 | 52.54322 | 19.57042 | 5843 ft | 304 kts | 141° |
| 2026-05-04 10:40 | 52.52750 | 19.59379 | 5733 ft | 306 kts | 141° |
| 2026-05-04 10:40 | 52.51172 | 19.61710 | 5588 ft | 304 kts | 141° |
| 2026-05-04 10:41 | 52.49620 | 19.63997 | 5572 ft | 297 kts | 141° |
| 2026-05-04 10:41 | 52.48097 | 19.66297 | 5542 ft | 300 kts | 140° |
| 2026-05-04 10:41 | 52.46547 | 19.68623 | 5503 ft | 302 kts | 141° |
| 2026-05-04 10:41 | 52.45199 | 19.71262 | 5540 ft | 306 kts | 123° |
| 2026-05-04 10:42 | 52.44551 | 19.74587 | 5582 ft | 309 kts | 99° |
| 2026-05-04 10:42 | 52.44371 | 19.78049 | 5562 ft | 310 kts | 97° |
| 2026-05-04 10:42 | 52.44195 | 19.81703 | 5476 ft | 332 kts | 96° |
| 2026-05-04 10:42 | 52.43997 | 19.85466 | 5418 ft | 331 kts | 98° |
| 2026-05-04 10:43 | 52.43778 | 19.89242 | 5313 ft | 331 kts | 97° |
| 2026-05-04 10:44 | 52.41498 | 20.13754 | 5259 ft | 308 kts | 103° |
| 2026-05-04 10:45 | 52.41094 | 20.17259 | 5272 ft | 317 kts | 103° |
| 2026-05-04 10:45 | 52.40666 | 20.20803 | 5356 ft | 315 kts | 103° |
| 2026-05-04 10:45 | 52.40231 | 20.24336 | 5272 ft | 320 kts | 104° |
| 2026-05-04 10:45 | 52.39883 | 20.27944 | 4969 ft | 326 kts | 92° |
| 2026-05-04 10:46 | 52.40130 | 20.31577 | 4915 ft | 317 kts | 83° |
| 2026-05-04 10:46 | 52.40448 | 20.35123 | 4667 ft | 314 kts | 83° |
| 2026-05-04 10:46 | 52.40778 | 20.38620 | 4337 ft | 317 kts | 83° |
| 2026-05-04 10:46 | 52.41132 | 20.42176 | 4031 ft | 316 kts | 81° |
| 2026-05-04 10:47 | 52.41484 | 20.45728 | 3748 ft | 316 kts | 82° |
| 2026-05-04 10:47 | 52.41838 | 20.49257 | 3257 ft | 313 kts | 84° |
| 2026-05-04 10:47 | 52.42149 | 20.52672 | 2884 ft | 292 kts | 85° |
| 2026-05-04 10:47 | 52.42195 | 20.55790 | 3050 ft | 264 kts | 94° |
| 2026-05-04 10:49 | 52.39719 | 20.74932 | 2689 ft | 240 kts | 94° |
| 2026-05-04 10:49 | 52.40382 | 20.77333 | 2729 ft | 235 kts | 38° |
| 2026-05-04 10:50 | 52.41805 | 20.78049 | 2729 ft | 187 kts | 357° |
| 2026-05-04 10:51 | 52.45854 | 20.72729 | 1208 ft | 112 kts | 253° |
| 2026-05-04 10:52 | 52.45722 | 20.71489 | 1066 ft | 108 kts | 257° |
| 2026-05-04 10:52 | 52.45609 | 20.70265 | 825 ft | 110 kts | 255° |
| 2026-05-04 10:52 | 52.45483 | 20.68994 | 624 ft | 113 kts | 258° |
| 2026-05-04 10:54 | 52.47323 | 20.66891 | 1147 ft | 147 kts | 83° |
| 2026-05-04 10:54 | 52.47428 | 20.68422 | 1180 ft | 122 kts | 108° |
| 2026-05-04 10:56 | 52.45153 | 20.65526 | 332 ft | 43 kts | 262° |
| 2026-05-04 10:56 | 52.45113 | 20.65094 | 334 ft | 34 kts | 260° |
| 2026-05-04 10:56 | 52.45079 | 20.64738 | 332 ft | 29 kts | 260° |
| 2026-05-04 10:57 | 52.45053 | 20.64457 | 334 ft | 17 kts | 261° |
| 2026-05-04 10:57 | 52.44975 | 20.64387 | 332 ft | 14 kts | 182° |
| 2026-05-04 10:57 | 52.44881 | 20.64380 | 333 ft | 13 kts | 183° |
| 2026-05-04 10:57 | 52.44792 | 20.64374 | 331 ft | 12 kts | 182° |
| 2026-05-04 10:58 | 52.44720 | 20.64380 | 333 ft | 9 kts | 141° |
| 2026-05-04 10:58 | 52.44718 | 20.64491 | 333 ft | 11 kts | 81° |
| 2026-05-04 10:58 | 52.44731 | 20.64628 | 333 ft | 13 kts | 79° |
| 2026-05-04 10:58 | 52.44747 | 20.64787 | 333 ft | 15 kts | 81° |
| 2026-05-04 10:59 | 52.44764 | 20.64964 | 333 ft | 17 kts | 81° |
| 2026-05-04 10:59 | 52.44781 | 20.65149 | 331 ft | 16 kts | 81° |
| 2026-05-04 10:59 | 52.44798 | 20.65328 | 332 ft | 16 kts | 81° |
| 2026-05-04 10:59 | 52.44815 | 20.65504 | 333 ft | 16 kts | 81° |
| 2026-05-04 11:00 | 52.44829 | 20.65676 | 333 ft | 15 kts | 83° |
| 2026-05-04 11:01 | 52.44941 | 20.66859 | 332 ft | 15 kts | 81° |
| 2026-05-04 11:02 | 52.44957 | 20.67026 | 332 ft | 14 kts | 77° |
| 2026-05-04 11:02 | 52.44932 | 20.67127 | 333 ft | 9 kts | 147° |